Time,TemperatureF,DewpointF,PressureIn,WindDirection,WindDirectionDegrees,WindSpeedMPH,WindSpeedGustMPH,Humidity,HourlyPrecipIn,Conditions,Clouds,dailyrainin,SoftwareType,DateUTC
2013-06-23 00:00:00,71.6,70.1,30.08,NE,40,0.0,0.0,95,0.00,,---,0.05,VWS V14.01,2013-06-23 04:00:00,
2013-06-23 00:01:00,71.5,70.0,30.08,NE,40,0.0,0.0,95,0.00,,---,0.00,VWS V14.01,2013-06-23 04:01:00,
2013-06-23 00:06:00,71.5,70.0,30.08,NE,40,0.0,0.0,95,0.00,,---,0.00,VWS V14.01,2013-06-23 04:06:00,
2013-06-23 00:11:00,71.4,69.9,30.08,NE,40,0.0,0.0,95,0.00,,---,0.00,VWS V14.01,2013-06-23 04:11:00,
2013-06-23 00:16:00,71.4,69.9,30.08,NE,40,0.0,0.0,95,0.00,,---,0.00,VWS V14.01,2013-06-23 04:16:00,
2013-06-23 00:21:00,71.3,69.8,30.08,NE,40,0.0,0.0,95,0.00,,---,0.00,VWS V14.01,2013-06-23 04:21:00,
2013-06-23 00:26:00,71.3,70.1,30.08,NE,40,0.0,0.0,96,0.00,,---,0.00,VWS V14.01,2013-06-23 04:26:00,
2013-06-23 00:30:00,71.9,70.4,30.08,NE,40,0.0,0.0,95,0.00,,---,0.05,VWS V14.01,2013-06-23 04:30:00,
2013-06-23 00:31:00,71.2,70.0,30.09,NE,40,0.0,0.0,96,0.00,,---,0.00,VWS V14.01,2013-06-23 04:31:00,
2013-06-23 00:36:00,71.3,70.1,30.08,NE,40,0.0,0.0,96,0.00,,---,0.00,VWS V14.01,2013-06-23 04:36:00,
2013-06-23 00:41:00,71.2,70.0,30.08,NE,40,0.0,0.0,96,0.00,,---,0.00,VWS V14.01,2013-06-23 04:41:00,
2013-06-23 00:46:00,71.3,70.1,30.08,NE,40,0.0,0.0,96,0.00,,---,0.00,VWS V14.01,2013-06-23 04:46:00,
2013-06-23 00:51:00,71.2,70.0,30.08,NE,40,0.0,0.0,96,0.00,,---,0.00,VWS V14.01,2013-06-23 04:51:00,
2013-06-23 00:56:00,71.3,70.1,30.08,NE,40,0.0,0.0,96,0.00,,---,0.00,VWS V14.01,2013-06-23 04:56:00,
2013-06-23 01:00:00,71.5,70.0,30.08,NE,40,0.0,0.0,95,0.00,,---,0.05,VWS V14.01,2013-06-23 05:00:00,
2013-06-23 01:01:00,71.2,70.0,30.08,NE,40,0.0,0.0,96,0.00,,---,0.00,VWS V14.01,2013-06-23 05:01:00,
2013-06-23 01:06:00,71.2,70.0,30.08,NE,40,0.0,0.0,96,0.00,,---,0.00,VWS V14.01,2013-06-23 05:06:00,
2013-06-23 01:11:00,71.1,69.9,30.08,NE,40,0.0,0.0,96,0.00,,---,0.00,VWS V14.01,2013-06-23 05:11:00,
2013-06-23 01:16:00,71.1,69.9,30.08,NE,40,0.0,0.0,96,0.00,,---,0.00,VWS V14.01,2013-06-23 05:16:00,
2013-06-23 01:21:00,71.1,69.9,30.08,NE,40,0.0,0.0,96,0.00,,---,0.00,VWS V14.01,2013-06-23 05:21:00,
2013-06-23 01:26:00,71.0,69.8,30.08,NE,40,0.0,0.0,96,0.00,,---,0.00,VWS V14.01,2013-06-23 05:26:00,
2013-06-23 01:30:00,71.2,70.0,30.09,NE,40,0.0,0.0,96,0.00,,---,0.00,VWS V14.01,2013-06-23 05:30:00,
2013-06-23 01:31:00,71.0,69.8,30.08,NE,40,0.0,0.0,96,0.00,,---,0.00,VWS V14.01,2013-06-23 05:31:00,
2013-06-23 01:36:00,70.8,69.6,30.08,NE,40,0.0,0.0,96,0.00,,---,0.00,VWS V14.01,2013-06-23 05:36:00,
2013-06-23 01:41:00,70.7,69.5,30.07,NE,40,0.0,0.0,96,0.00,,---,0.00,VWS V14.01,2013-06-23 05:41:00,
2013-06-23 01:46:00,70.6,69.4,30.07,NE,40,0.0,0.0,96,0.00,,---,0.00,VWS V14.01,2013-06-23 05:46:00,
2013-06-23 01:51:00,70.4,69.2,30.07,NE,40,0.0,0.0,96,0.00,,---,0.00,VWS V14.01,2013-06-23 05:51:00,
2013-06-23 01:56:00,70.3,69.1,30.07,NE,40,0.0,0.0,96,0.00,,---,0.00,VWS V14.01,2013-06-23 05:56:00,
2013-06-23 02:00:00,71.2,70.0,30.08,NE,40,0.0,0.0,96,0.00,,---,0.00,VWS V14.01,2013-06-23 06:00:00,
2013-06-23 02:01:00,70.3,69.1,30.07,NE,40,0.0,0.0,96,0.00,,---,0.00,VWS V14.01,2013-06-23 06:01:00,
2013-06-23 02:06:00,70.2,68.7,30.07,NE,40,0.0,0.0,95,0.00,,---,0.00,VWS V14.01,2013-06-23 06:06:00,
2013-06-23 02:11:00,70.1,68.6,30.07,NE,40,0.0,0.0,95,0.00,,---,0.00,VWS V14.01,2013-06-23 06:11:00,
2013-06-23 02:16:00,70.0,68.5,30.07,NE,40,0.0,0.0,95,0.00,,---,0.00,VWS V14.01,2013-06-23 06:16:00,
2013-06-23 02:21:00,69.9,68.4,30.07,NE,40,0.0,0.0,95,0.00,,---,0.00,VWS V14.01,2013-06-23 06:21:00,
2013-06-23 02:26:00,69.8,68.3,30.07,NE,40,0.0,0.0,95,0.00,,---,0.00,VWS V14.01,2013-06-23 06:26:00,
2013-06-23 02:30:00,71.0,69.8,30.08,NE,40,0.0,0.0,96,0.00,,---,0.00,VWS V14.01,2013-06-23 06:30:00,
2013-06-23 02:31:00,69.7,68.2,30.07,NE,40,0.0,0.0,95,0.00,,---,0.00,VWS V14.01,2013-06-23 06:31:00,
2013-06-23 02:36:00,69.5,68.0,30.07,NE,40,0.0,0.0,95,0.00,,---,0.00,VWS V14.01,2013-06-23 06:36:00,
2013-06-23 02:41:00,69.4,67.9,30.07,NE,40,0.0,0.0,95,0.00,,---,0.00,VWS V14.01,2013-06-23 06:41:00,
2013-06-23 02:46:00,69.3,67.8,30.07,NE,40,0.0,0.0,95,0.00,,---,0.00,VWS V14.01,2013-06-23 06:46:00,
2013-06-23 02:51:00,69.2,67.7,30.07,NE,40,0.0,0.0,95,0.00,,---,0.00,VWS V14.01,2013-06-23 06:51:00,
2013-06-23 02:56:00,69.0,67.5,30.07,NE,40,0.0,0.0,95,0.00,,---,0.00,VWS V14.01,2013-06-23 06:56:00,
2013-06-23 03:00:00,70.3,69.1,30.07,NE,40,0.0,0.0,96,0.00,,---,0.00,VWS V14.01,2013-06-23 07:00:00,
2013-06-23 03:01:00,69.0,67.8,30.07,NE,40,0.0,0.0,96,0.00,,---,0.00,VWS V14.01,2013-06-23 07:01:00,
2013-06-23 03:06:00,68.9,67.7,30.07,NE,40,0.0,0.0,96,0.00,,---,0.00,VWS V14.01,2013-06-23 07:06:00,
2013-06-23 03:11:00,68.8,67.3,30.07,NE,40,0.0,0.0,95,0.00,,---,0.00,VWS V14.01,2013-06-23 07:11:00,
2013-06-23 03:16:00,68.7,67.2,30.07,NE,40,0.0,0.0,95,0.00,,---,0.00,VWS V14.01,2013-06-23 07:16:00,
2013-06-23 03:21:00,68.6,67.1,30.07,NE,40,0.0,0.0,95,0.00,,---,0.00,VWS V14.01,2013-06-23 07:21:00,
2013-06-23 03:26:00,68.5,67.3,30.06,NE,40,0.0,0.0,96,0.00,,---,0.00,VWS V14.01,2013-06-23 07:26:00,
2013-06-23 03:30:00,69.7,68.2,30.07,NE,40,0.0,0.0,95,0.00,,---,0.00,VWS V14.01,2013-06-23 07:30:00,
2013-06-23 03:31:00,68.4,67.2,30.07,NE,40,0.0,0.0,96,0.00,,---,0.00,VWS V14.01,2013-06-23 07:31:00,
2013-06-23 03:36:00,68.3,67.1,30.07,NE,40,0.0,0.0,96,0.00,,---,0.00,VWS V14.01,2013-06-23 07:36:00,
2013-06-23 03:41:00,68.3,67.1,30.07,NE,40,0.0,0.0,96,0.00,,---,0.00,VWS V14.01,2013-06-23 07:41:00,
2013-06-23 03:46:00,68.3,67.1,30.07,NE,40,0.0,0.0,96,0.00,,---,0.00,VWS V14.01,2013-06-23 07:46:00,
2013-06-23 03:51:00,68.3,67.1,30.07,NE,40,0.0,0.0,96,0.00,,---,0.00,VWS V14.01,2013-06-23 07:51:00,
2013-06-23 03:56:00,68.2,67.0,30.07,NE,40,0.0,0.0,96,0.00,,---,0.00,VWS V14.01,2013-06-23 07:56:00,
2013-06-23 04:00:00,69.0,67.8,30.07,NE,40,0.0,0.0,96,0.00,,---,0.00,VWS V14.01,2013-06-23 08:00:00,
2013-06-23 04:01:00,68.2,67.0,30.07,NE,40,0.0,0.0,96,0.00,,---,0.00,VWS V14.01,2013-06-23 08:01:00,
2013-06-23 04:06:00,68.2,67.0,30.07,NE,40,0.0,0.0,96,0.00,,---,0.00,VWS V14.01,2013-06-23 08:06:00,
2013-06-23 04:11:00,68.1,66.9,30.07,NE,40,0.0,0.0,96,0.00,,---,0.00,VWS V14.01,2013-06-23 08:11:00,
2013-06-23 04:16:00,68.1,66.9,30.07,NE,40,0.0,0.0,96,0.00,,---,0.00,VWS V14.01,2013-06-23 08:16:00,
2013-06-23 04:21:00,68.1,67.2,30.07,NE,40,0.0,0.0,97,0.00,,---,0.00,VWS V14.01,2013-06-23 08:21:00,
2013-06-23 04:26:00,68.1,67.2,30.07,NE,40,0.0,0.0,97,0.00,,---,0.00,VWS V14.01,2013-06-23 08:26:00,
2013-06-23 04:30:00,68.4,67.2,30.07,NE,40,0.0,0.0,96,0.00,,---,0.00,VWS V14.01,2013-06-23 08:30:00,
2013-06-23 04:31:00,68.2,67.3,30.07,NE,40,0.0,0.0,97,0.00,,---,0.00,VWS V14.01,2013-06-23 08:31:00,
2013-06-23 04:36:00,68.2,67.3,30.07,NE,40,0.0,0.0,97,0.00,,---,0.00,VWS V14.01,2013-06-23 08:36:00,
2013-06-23 04:41:00,68.2,67.3,30.07,NE,40,0.0,0.0,97,0.00,,---,0.00,VWS V14.01,2013-06-23 08:41:00,
2013-06-23 04:46:00,68.2,67.3,30.07,NE,40,0.0,0.0,97,0.00,,---,0.00,VWS V14.01,2013-06-23 08:46:00,
2013-06-23 04:51:00,68.2,67.3,30.07,NE,40,0.0,0.0,97,0.00,,---,0.00,VWS V14.01,2013-06-23 08:51:00,
2013-06-23 04:55:00,68.2,67.3,30.07,NE,40,0.0,0.0,97,0.00,,---,0.00,VWS V14.01,2013-06-23 08:55:00,
2013-06-23 05:00:00,68.2,67.3,30.07,NE,40,0.0,0.0,97,0.00,,---,0.00,VWS V14.01,2013-06-23 09:00:00,
2013-06-23 05:05:00,68.1,67.2,30.07,NE,40,0.0,0.0,97,0.00,,---,0.00,VWS V14.01,2013-06-23 09:05:00,
2013-06-23 05:10:00,68.1,67.2,30.07,NE,40,0.0,0.0,97,0.00,,---,0.00,VWS V14.01,2013-06-23 09:10:00,
2013-06-23 05:15:00,68.1,67.2,30.07,NE,40,0.0,0.0,97,0.00,,---,0.00,VWS V14.01,2013-06-23 09:15:00,
2013-06-23 05:20:00,68.1,67.2,30.07,NE,40,0.0,0.0,97,0.00,,---,0.00,VWS V14.01,2013-06-23 09:20:00,
2013-06-23 05:25:00,68.1,67.2,30.07,NE,40,0.0,0.0,97,0.00,,---,0.00,VWS V14.01,2013-06-23 09:25:00,
2013-06-23 05:30:00,68.1,67.2,30.07,NE,40,0.0,0.0,97,0.00,,---,0.00,VWS V14.01,2013-06-23 09:30:00,
2013-06-23 05:35:00,68.1,67.2,30.07,NE,40,0.0,0.0,97,0.00,,---,0.00,VWS V14.01,2013-06-23 09:35:00,
2013-06-23 05:40:00,68.0,67.1,30.08,NE,40,0.0,0.0,97,0.00,,---,0.00,VWS V14.01,2013-06-23 09:40:00,
2013-06-23 05:45:00,68.0,67.1,30.08,NE,40,0.0,0.0,97,0.00,,---,0.00,VWS V14.01,2013-06-23 09:45:00,
2013-06-23 05:50:00,68.0,67.1,30.08,NE,40,0.0,0.0,97,0.00,,---,0.00,VWS V14.01,2013-06-23 09:50:00,
2013-06-23 05:55:00,68.0,67.1,30.08,NE,40,0.0,0.0,97,0.00,,---,0.00,VWS V14.01,2013-06-23 09:55:00,
2013-06-23 06:00:00,68.0,67.1,30.08,NE,40,0.0,0.0,97,0.00,,---,0.00,VWS V14.01,2013-06-23 10:00:00,
2013-06-23 06:05:00,68.0,67.1,30.08,NE,40,0.0,0.0,97,0.00,,---,0.00,VWS V14.01,2013-06-23 10:05:00,
2013-06-23 06:10:00,68.0,67.1,30.08,NE,40,0.0,0.0,97,0.00,,---,0.00,VWS V14.01,2013-06-23 10:10:00,
2013-06-23 06:15:00,68.0,67.1,30.08,NE,40,0.0,0.0,97,0.00,,---,0.00,VWS V14.01,2013-06-23 10:15:00,
2013-06-23 06:20:00,68.0,67.1,30.08,NE,40,0.0,0.0,97,0.00,,---,0.00,VWS V14.01,2013-06-23 10:20:00,
2013-06-23 06:25:00,68.0,67.1,30.08,South,190,0.0,0.0,97,0.00,,---,0.00,VWS V14.01,2013-06-23 10:25:00,
2013-06-23 06:30:00,68.0,67.1,30.08,South,190,0.0,0.0,97,0.00,,---,0.00,VWS V14.01,2013-06-23 10:30:00,
2013-06-23 06:35:00,68.0,67.4,30.08,South,190,0.0,0.0,98,0.00,,---,0.00,VWS V14.01,2013-06-23 10:35:00,
2013-06-23 06:40:00,68.1,67.5,30.08,South,190,0.0,0.0,98,0.00,,---,0.00,VWS V14.01,2013-06-23 10:40:00,
2013-06-23 06:45:00,68.1,67.5,30.08,South,190,0.0,0.0,98,0.00,,---,0.00,VWS V14.01,2013-06-23 10:45:00,
2013-06-23 06:50:00,68.1,67.5,30.08,South,190,0.0,0.0,98,0.00,,---,0.00,VWS V14.01,2013-06-23 10:50:00,
2013-06-23 06:55:00,68.1,67.5,30.08,South,190,0.0,0.0,98,0.00,,---,0.00,VWS V14.01,2013-06-23 10:55:00,
2013-06-23 07:00:00,68.2,67.6,30.09,South,190,0.0,0.0,98,0.00,,---,0.00,VWS V14.01,2013-06-23 11:00:00,
2013-06-23 07:05:00,68.3,67.7,30.09,South,190,0.0,0.0,98,0.00,,---,0.00,VWS V14.01,2013-06-23 11:05:00,
2013-06-23 07:10:00,68.5,67.9,30.09,South,190,0.0,0.0,98,0.00,,---,0.00,VWS V14.01,2013-06-23 11:10:00,
2013-06-23 07:15:00,68.8,68.2,30.09,South,190,0.0,0.0,98,0.00,,---,0.00,VWS V14.01,2013-06-23 11:15:00,
2013-06-23 07:20:00,69.0,68.4,30.09,South,190,0.0,0.0,98,0.00,,---,0.00,VWS V14.01,2013-06-23 11:20:00,
2013-06-23 07:25:00,69.3,68.7,30.09,South,190,0.0,0.0,98,0.00,,---,0.00,VWS V14.01,2013-06-23 11:25:00,
2013-06-23 07:30:00,69.5,68.9,30.09,South,190,0.0,0.0,98,0.00,,---,0.00,VWS V14.01,2013-06-23 11:30:00,
2013-06-23 07:35:00,69.9,69.6,30.10,South,190,0.0,0.0,99,0.00,,---,0.00,VWS V14.01,2013-06-23 11:35:00,
2013-06-23 07:40:00,70.1,69.8,30.10,South,190,0.0,0.0,99,0.00,,---,0.00,VWS V14.01,2013-06-23 11:40:00,
2013-06-23 07:45:00,70.1,69.8,30.10,South,190,0.0,0.0,99,0.00,,---,0.00,VWS V14.01,2013-06-23 11:45:00,
2013-06-23 07:50:00,70.3,70.0,30.10,South,190,0.0,0.0,99,0.00,,---,0.00,VWS V14.01,2013-06-23 11:50:00,
2013-06-23 07:55:00,70.4,70.1,30.10,South,190,0.0,0.0,99,0.00,,---,0.00,VWS V14.01,2013-06-23 11:55:00,
2013-06-23 08:00:00,70.6,70.3,30.10,South,190,0.0,0.0,99,0.00,,---,0.00,VWS V14.01,2013-06-23 12:00:00,
2013-06-23 08:05:00,70.8,70.5,30.10,South,190,0.0,0.0,99,0.00,,---,0.00,VWS V14.01,2013-06-23 12:05:00,
2013-06-23 08:10:00,71.1,70.8,30.11,South,190,0.0,0.0,99,0.00,,---,0.00,VWS V14.01,2013-06-23 12:10:00,
2013-06-23 08:15:00,71.3,71.0,30.11,South,190,0.0,1.0,99,0.00,,---,0.00,VWS V14.01,2013-06-23 12:15:00,
2013-06-23 08:20:00,71.5,71.2,30.11,SSW,194,0.0,2.0,99,0.00,,---,0.00,VWS V14.01,2013-06-23 12:20:00,
2013-06-23 08:25:00,71.7,71.4,30.11,SSW,194,0.0,2.0,99,0.00,,---,0.00,VWS V14.01,2013-06-23 12:25:00,
2013-06-23 08:30:00,71.8,71.5,30.11,SSW,194,0.0,2.0,99,0.00,,---,0.00,VWS V14.01,2013-06-23 12:30:00,
2013-06-23 08:35:00,72.0,71.7,30.12,SSW,194,0.0,0.0,99,0.00,,---,0.00,VWS V14.01,2013-06-23 12:35:00,
2013-06-23 08:40:00,72.1,71.8,30.12,SSW,194,0.0,2.0,99,0.00,,---,0.00,VWS V14.01,2013-06-23 12:40:00,
2013-06-23 08:45:00,72.4,72.1,30.12,WNW,302,3.0,4.0,99,0.00,,---,0.00,VWS V14.01,2013-06-23 12:45:00,
2013-06-23 08:50:00,72.5,72.2,30.12,WNW,302,0.0,4.0,99,0.00,,---,0.00,VWS V14.01,2013-06-23 12:50:00,
2013-06-23 08:55:00,72.6,72.3,30.13,WNW,302,0.0,4.0,99,0.00,,---,0.00,VWS V14.01,2013-06-23 12:55:00,
2013-06-23 09:00:00,72.8,72.2,30.13,WNW,302,0.0,4.0,98,0.00,,---,0.00,VWS V14.01,2013-06-23 13:00:00,
2013-06-23 09:05:00,73.0,72.4,30.13,WNW,302,0.0,1.0,98,0.00,,---,0.00,VWS V14.01,2013-06-23 13:05:00,
2013-06-23 09:10:00,73.2,72.6,30.13,WNW,302,0.0,1.0,98,0.00,,---,0.00,VWS V14.01,2013-06-23 13:10:00,
2013-06-23 09:15:00,73.4,72.8,30.13,WNW,302,0.0,1.0,98,0.00,,---,0.00,VWS V14.01,2013-06-23 13:15:00,
2013-06-23 09:20:00,73.6,72.7,30.12,WNW,302,0.0,1.0,97,0.00,,---,0.00,VWS V14.01,2013-06-23 13:20:00,
2013-06-23 09:25:00,73.8,72.9,30.12,WNW,302,0.0,1.0,97,0.00,,---,0.00,VWS V14.01,2013-06-23 13:25:00,
2013-06-23 09:30:00,74.0,72.8,30.12,WNW,302,0.0,1.0,96,0.00,,---,0.00,VWS V14.01,2013-06-23 13:30:00,
2013-06-23 09:35:00,74.1,72.9,30.12,WNW,302,0.0,0.0,96,0.00,,---,0.00,VWS V14.01,2013-06-23 13:35:00,
2013-06-23 09:40:00,74.2,72.7,30.12,WNW,302,0.0,0.0,95,0.00,,---,0.00,VWS V14.01,2013-06-23 13:40:00,
2013-06-23 09:45:00,74.5,73.0,30.12,WNW,302,0.0,0.0,95,0.00,,---,0.00,VWS V14.01,2013-06-23 13:45:00,
2013-06-23 09:50:00,74.8,73.3,30.12,WSW,243,0.0,1.0,95,0.00,,---,0.00,VWS V14.01,2013-06-23 13:50:00,
2013-06-23 09:55:00,75.1,73.3,30.13,WSW,245,0.0,3.0,94,0.00,,---,0.00,VWS V14.01,2013-06-23 13:55:00,
2013-06-23 10:00:00,75.4,73.2,30.12,WSW,245,0.0,3.0,93,0.00,,---,0.00,VWS V14.01,2013-06-23 14:00:00,
2013-06-23 10:05:00,75.6,73.1,30.12,WSW,245,0.0,0.0,92,0.00,,---,0.00,VWS V14.01,2013-06-23 14:05:00,
2013-06-23 10:10:00,75.9,73.7,30.12,WSW,245,0.0,0.0,93,0.00,,---,0.00,VWS V14.01,2013-06-23 14:10:00,
2013-06-23 10:15:00,76.3,73.8,30.12,SSW,199,0.0,1.0,92,0.00,,---,0.00,VWS V14.01,2013-06-23 14:15:00,
2013-06-23 10:20:00,76.5,73.7,30.12,WNW,297,0.0,1.0,91,0.00,,---,0.00,VWS V14.01,2013-06-23 14:20:00,
2013-06-23 10:25:00,76.8,74.0,30.12,WNW,297,0.0,1.0,91,0.00,,---,0.00,VWS V14.01,2013-06-23 14:25:00,
2013-06-23 10:30:00,77.0,74.2,30.13,WNW,297,0.0,2.0,91,0.00,,---,0.00,VWS V14.01,2013-06-23 14:30:00,
2013-06-23 10:35:00,77.4,74.6,30.12,WNW,297,0.0,1.0,91,0.00,,---,0.00,VWS V14.01,2013-06-23 14:35:00,
2013-06-23 10:40:00,77.8,74.0,30.13,WNW,296,3.0,3.0,88,0.00,,---,0.00,VWS V14.01,2013-06-23 14:40:00,
2013-06-23 10:45:00,78.1,73.9,30.13,WNW,296,0.0,3.0,87,0.00,,---,0.00,VWS V14.01,2013-06-23 14:45:00,
2013-06-23 10:50:00,78.4,74.6,30.13,WNW,296,0.0,3.0,88,0.00,,---,0.00,VWS V14.01,2013-06-23 14:50:00,
2013-06-23 10:55:00,78.9,74.4,30.13,NW,313,0.0,3.0,86,0.00,,---,0.00,VWS V14.01,2013-06-23 14:55:00,
2013-06-23 11:00:00,79.1,74.6,30.12,NW,313,0.0,3.0,86,0.00,,---,0.00,VWS V14.01,2013-06-23 15:00:00,
2013-06-23 11:05:00,79.5,74.6,30.13,NW,312,0.0,2.0,85,0.00,,---,0.00,VWS V14.01,2013-06-23 15:05:00,
2013-06-23 11:10:00,79.7,74.4,30.13,NW,312,0.0,2.0,84,0.00,,---,0.00,VWS V14.01,2013-06-23 15:10:00,
2013-06-23 11:15:00,80.2,74.9,30.12,West,279,0.0,2.0,84,0.00,,---,0.00,VWS V14.01,2013-06-23 15:15:00,
2013-06-23 11:20:00,80.6,74.2,30.12,West,279,0.0,2.0,81,0.00,,---,0.00,VWS V14.01,2013-06-23 15:20:00,
2013-06-23 11:25:00,81.2,75.2,30.12,West,276,2.0,4.0,82,0.00,,---,0.00,VWS V14.01,2013-06-23 15:25:00,
2013-06-23 11:30:00,81.7,74.9,30.12,West,275,0.0,4.0,80,0.00,,---,0.00,VWS V14.01,2013-06-23 15:30:00,
2013-06-23 11:35:00,81.9,75.1,30.12,West,275,0.0,0.0,80,0.00,,---,0.00,VWS V14.01,2013-06-23 15:35:00,
2013-06-23 11:40:00,81.8,74.7,30.12,West,275,0.0,1.0,79,0.00,,---,0.00,VWS V14.01,2013-06-23 15:40:00,
2013-06-23 11:45:00,81.8,74.7,30.12,West,275,0.0,1.0,79,0.00,,---,0.00,VWS V14.01,2013-06-23 15:45:00,
2013-06-23 11:50:00,81.9,74.8,30.12,West,275,0.0,1.0,79,0.00,,---,0.00,VWS V14.01,2013-06-23 15:50:00,
2013-06-23 11:55:00,82.3,75.1,30.12,West,275,0.0,1.0,79,0.00,,---,0.00,VWS V14.01,2013-06-23 15:55:00,
2013-06-23 12:00:00,79.1,74.6,30.12,NW,313,0.0,3.0,86,0.00,,---,0.00,VWS V14.01,2013-06-23 16:00:00,
2013-06-23 12:01:00,82.5,74.9,30.12,West,275,0.0,0.0,78,0.00,,---,0.00,VWS V14.01,2013-06-23 16:01:00,
2013-06-23 12:06:00,82.8,75.2,30.12,West,275,0.0,2.0,78,0.00,,---,0.00,VWS V14.01,2013-06-23 16:06:00,
2013-06-23 12:11:00,83.0,75.8,30.12,West,275,1.0,2.0,79,0.00,,---,0.00,VWS V14.01,2013-06-23 16:11:00,
2013-06-23 12:16:00,83.1,75.5,30.12,West,275,0.0,2.0,78,0.00,,---,0.00,VWS V14.01,2013-06-23 16:16:00,
2013-06-23 12:21:00,83.0,75.8,30.11,West,275,0.0,2.0,79,0.00,,---,0.00,VWS V14.01,2013-06-23 16:21:00,
2013-06-23 12:26:00,83.1,75.9,30.11,West,275,0.0,2.0,79,0.00,,---,0.00,VWS V14.01,2013-06-23 16:26:00,
2013-06-23 12:30:00,81.7,74.9,30.12,West,275,0.0,4.0,80,0.00,,---,0.00,VWS V14.01,2013-06-23 16:30:00,
2013-06-23 12:31:00,83.1,75.2,30.11,West,275,0.0,1.0,77,0.00,,---,0.00,VWS V14.01,2013-06-23 16:31:00,
2013-06-23 12:36:00,83.2,76.0,30.11,West,275,1.0,2.0,79,0.00,,---,0.00,VWS V14.01,2013-06-23 16:36:00,
2013-06-23 12:41:00,83.1,75.9,30.11,NNW,342,0.0,3.0,79,0.00,,---,0.00,VWS V14.01,2013-06-23 16:41:00,
2013-06-23 12:46:00,83.1,75.5,30.11,NE,45,0.0,3.0,78,0.00,,---,0.00,VWS V14.01,2013-06-23 16:46:00,
2013-06-23 12:51:00,83.4,75.8,30.11,NE,45,0.0,3.0,78,0.00,,---,0.00,VWS V14.01,2013-06-23 16:51:00,
2013-06-23 12:56:00,83.3,74.9,30.10,NE,45,0.0,3.0,76,0.00,,---,0.00,VWS V14.01,2013-06-23 16:56:00,
2013-06-23 12:57:00,83.2,75.2,30.10,NE,45,0.0,3.0,77,0.00,,---,0.00,VWS V14.01,2013-06-23 16:57:00,
2013-06-23 13:00:00,82.5,74.9,30.12,West,275,0.0,1.0,78,0.00,,---,0.00,VWS V14.01,2013-06-23 17:00:00,
2013-06-23 13:02:00,83.1,75.2,30.10,NE,45,0.0,0.0,77,0.00,,---,0.00,VWS V14.01,2013-06-23 17:02:00,
2013-06-23 13:07:00,83.3,74.9,30.10,WNW,302,0.0,3.0,76,0.00,,---,0.00,VWS V14.01,2013-06-23 17:07:00,
2013-06-23 13:12:00,83.4,74.7,30.10,WNW,302,0.0,3.0,75,0.00,,---,0.00,VWS V14.01,2013-06-23 17:12:00,
2013-06-23 13:17:00,83.4,76.2,30.10,WNW,302,0.0,3.0,79,0.00,,---,0.00,VWS V14.01,2013-06-23 17:17:00,
2013-06-23 13:22:00,83.4,76.2,30.10,WNW,302,0.0,3.0,79,0.00,,---,0.00,VWS V14.01,2013-06-23 17:22:00,
2013-06-23 13:27:00,83.0,74.7,30.10,ENE,68,0.0,4.0,76,0.00,,---,0.00,VWS V14.01,2013-06-23 17:27:00,
2013-06-23 13:30:00,83.2,75.6,30.11,West,275,1.0,2.0,78,0.00,,---,0.00,VWS V14.01,2013-06-23 17:30:00,
2013-06-23 13:32:00,82.6,75.1,30.10,ENE,69,0.0,0.0,78,0.00,,---,0.00,VWS V14.01,2013-06-23 17:32:00,
2013-06-23 13:37:00,82.4,75.6,30.10,ENE,69,0.0,0.0,80,0.00,,---,0.00,VWS V14.01,2013-06-23 17:37:00,
2013-06-23 13:42:00,82.3,75.5,30.10,ENE,69,0.0,0.0,80,0.00,,---,0.00,VWS V14.01,2013-06-23 17:42:00,
2013-06-23 13:47:00,82.1,75.7,30.10,ENE,69,0.0,1.0,81,0.00,,---,0.00,VWS V14.01,2013-06-23 17:47:00,
2013-06-23 13:52:00,82.1,75.7,30.10,ENE,78,0.0,1.0,81,0.00,,---,0.00,VWS V14.01,2013-06-23 17:52:00,
2013-06-23 13:57:00,82.0,74.8,30.10,North,355,1.0,3.0,79,0.00,,---,0.00,VWS V14.01,2013-06-23 17:57:00,
2013-06-23 14:00:00,83.2,75.2,30.10,NE,45,0.0,3.0,77,0.00,,---,0.00,VWS V14.01,2013-06-23 18:00:00,
2013-06-23 14:02:00,81.8,75.0,30.09,ESE,122,0.0,0.0,80,0.00,,---,0.00,VWS V14.01,2013-06-23 18:02:00,
2013-06-23 14:07:00,81.7,75.3,30.09,NNW,340,0.0,0.0,81,0.00,,---,0.00,VWS V14.01,2013-06-23 18:07:00,
2013-06-23 14:12:00,81.7,74.9,30.09,NNW,340,0.0,0.0,80,0.00,,---,0.00,VWS V14.01,2013-06-23 18:12:00,
2013-06-23 14:17:00,81.5,75.1,30.08,NNW,340,0.0,0.0,81,0.00,,---,0.00,VWS V14.01,2013-06-23 18:17:00,
2013-06-23 14:22:00,81.4,75.7,30.09,NNW,340,0.0,0.0,83,0.00,,---,0.00,VWS V14.01,2013-06-23 18:22:00,
2013-06-23 14:27:00,81.3,75.7,30.08,NNW,340,0.0,0.0,83,0.00,,---,0.00,VWS V14.01,2013-06-23 18:27:00,
2013-06-23 14:30:00,82.7,74.8,30.10,ENE,69,0.0,4.0,77,0.00,,---,0.00,VWS V14.01,2013-06-23 18:30:00,
2013-06-23 14:32:00,81.1,76.2,30.08,NE,46,2.0,2.0,85,0.00,,---,0.00,VWS V14.01,2013-06-23 18:32:00,
2013-06-23 14:37:00,81.1,76.2,30.08,NE,46,0.0,2.0,85,0.00,,---,0.00,VWS V14.01,2013-06-23 18:37:00,
2013-06-23 14:42:00,81.3,75.3,30.08,NE,46,0.0,2.0,82,0.00,,---,0.00,VWS V14.01,2013-06-23 18:42:00,
2013-06-23 14:47:00,82.1,75.7,30.08,West,279,0.0,4.0,81,0.00,,---,0.00,VWS V14.01,2013-06-23 18:47:00,
2013-06-23 14:52:00,83.1,75.5,30.08,ENE,57,0.0,4.0,78,0.00,,---,0.00,VWS V14.01,2013-06-23 18:52:00,
2013-06-23 14:57:00,83.6,75.6,30.08,ENE,71,3.0,4.0,77,0.00,,---,0.00,VWS V14.01,2013-06-23 18:57:00,
2013-06-23 15:00:00,81.8,75.0,30.10,SSW,192,0.0,3.0,80,0.00,,---,0.00,VWS V14.01,2013-06-23 19:00:00,
2013-06-23 15:02:00,83.8,75.8,30.07,ENE,71,0.0,0.0,77,0.00,,---,0.00,VWS V14.01,2013-06-23 19:02:00,
2013-06-23 15:07:00,83.9,76.3,30.07,ENE,71,0.0,0.0,78,0.00,,---,0.00,VWS V14.01,2013-06-23 19:07:00,
2013-06-23 15:12:00,84.1,75.7,30.07,ENE,71,1.0,1.0,76,0.00,,---,0.00,VWS V14.01,2013-06-23 19:12:00,
2013-06-23 15:17:00,84.1,75.3,30.06,ENE,71,0.0,1.0,75,0.00,,---,0.00,VWS V14.01,2013-06-23 19:17:00,
2013-06-23 15:22:00,84.4,74.8,30.06,NNE,19,0.0,4.0,73,0.00,,---,0.00,VWS V14.01,2013-06-23 19:22:00,
2013-06-23 15:27:00,84.6,75.8,30.06,NNE,18,0.0,4.0,75,0.00,,---,0.00,VWS V14.01,2013-06-23 19:27:00,
2013-06-23 15:30:00,81.2,76.3,30.08,NE,38,0.0,0.0,85,0.00,,---,0.00,VWS V14.01,2013-06-23 19:30:00,
2013-06-23 15:32:00,84.6,74.6,30.06,NNE,22,3.0,3.0,72,0.00,,---,0.00,VWS V14.01,2013-06-23 19:32:00,
2013-06-23 15:37:00,84.7,75.1,30.05,NNE,24,1.0,3.0,73,0.00,,---,0.00,VWS V14.01,2013-06-23 19:37:00,
2013-06-23 15:42:00,84.6,74.2,30.05,NE,46,0.0,3.0,71,0.00,,---,0.00,VWS V14.01,2013-06-23 19:42:00,
2013-06-23 15:47:00,84.9,74.0,30.05,NE,47,1.0,3.0,70,0.00,,---,0.00,VWS V14.01,2013-06-23 19:47:00,
2013-06-23 15:52:00,85.0,74.6,30.05,ENE,78,0.0,4.0,71,0.00,,---,0.00,VWS V14.01,2013-06-23 19:52:00,
2013-06-23 15:57:00,85.3,74.4,30.05,ENE,78,1.0,4.0,70,0.00,,---,0.00,VWS V14.01,2013-06-23 19:57:00,
2013-06-23 16:00:00,83.7,74.9,30.07,ENE,71,0.0,4.0,75,0.00,,---,0.00,VWS V14.01,2013-06-23 20:00:00,
2013-06-23 16:02:00,85.6,74.7,30.05,ENE,78,0.0,1.0,70,0.00,,---,0.00,VWS V14.01,2013-06-23 20:02:00,
2013-06-23 16:07:00,85.5,73.3,30.05,ENE,78,1.0,2.0,67,0.00,,---,0.00,VWS V14.01,2013-06-23 20:07:00,
2013-06-23 16:12:00,85.3,74.0,30.05,ENE,78,0.0,2.0,69,0.00,,---,0.00,VWS V14.01,2013-06-23 20:12:00,
2013-06-23 16:17:00,85.1,74.6,30.05,ENE,78,0.0,2.0,71,0.00,,---,0.00,VWS V14.01,2013-06-23 20:17:00,
2013-06-23 16:22:00,84.8,74.4,30.06,ENE,78,0.0,2.0,71,0.00,,---,0.00,VWS V14.01,2013-06-23 20:22:00,
2013-06-23 16:27:00,84.5,75.3,30.06,ENE,78,0.0,2.0,74,0.00,,---,0.00,VWS V14.01,2013-06-23 20:27:00,
2013-06-23 16:30:00,84.6,74.6,30.06,NNE,18,0.0,4.0,72,0.00,,---,0.00,VWS V14.01,2013-06-23 20:30:00,
2013-06-23 16:32:00,84.3,75.5,30.05,ENE,78,0.0,0.0,75,0.00,,---,0.00,VWS V14.01,2013-06-23 20:32:00,
2013-06-23 16:37:00,84.0,75.6,30.05,ENE,78,0.0,0.0,76,0.00,,---,0.00,VWS V14.01,2013-06-23 20:37:00,
2013-06-23 16:42:00,83.7,76.5,30.05,ENE,78,0.0,0.0,79,0.00,,---,0.00,VWS V14.01,2013-06-23 20:42:00,
2013-06-23 16:47:00,83.6,76.4,30.05,ENE,58,1.0,1.0,79,0.00,,---,0.00,VWS V14.01,2013-06-23 20:47:00,
2013-06-23 16:52:00,83.4,75.4,30.05,NE,37,0.0,2.0,77,0.00,,---,0.00,VWS V14.01,2013-06-23 20:52:00,
2013-06-23 16:57:00,83.1,75.2,30.05,NE,37,0.0,2.0,77,0.00,,---,0.00,VWS V14.01,2013-06-23 20:57:00,
2013-06-23 17:00:00,85.5,74.6,30.05,ENE,78,0.0,4.0,70,0.00,,---,0.00,VWS V14.01,2013-06-23 21:00:00,
2013-06-23 17:02:00,83.0,75.8,30.06,NE,37,0.0,0.0,79,0.00,,---,0.00,VWS V14.01,2013-06-23 21:02:00,
2013-06-23 17:07:00,82.7,75.2,30.06,North,5,0.0,2.0,78,0.00,,---,0.00,VWS V14.01,2013-06-23 21:07:00,
2013-06-23 17:12:00,82.5,74.9,30.05,North,5,0.0,2.0,78,0.00,,---,0.00,VWS V14.01,2013-06-23 21:12:00,
2013-06-23 17:17:00,82.3,75.5,30.05,North,5,0.0,2.0,80,0.00,,---,0.00,VWS V14.01,2013-06-23 21:17:00,
2013-06-23 17:22:00,82.0,75.6,30.05,North,5,0.0,2.0,81,0.00,,---,0.00,VWS V14.01,2013-06-23 21:22:00,
2013-06-23 17:27:00,81.5,75.5,30.05,North,5,0.0,2.0,82,0.00,,---,0.00,VWS V14.01,2013-06-23 21:27:00,
2013-06-23 17:30:00,84.3,75.5,30.06,ENE,78,0.0,2.0,75,0.00,,---,0.00,VWS V14.01,2013-06-23 21:30:00,
2013-06-23 17:32:00,81.2,75.2,30.05,North,5,0.0,0.0,82,0.01,,---,0.01,VWS V14.01,2013-06-23 21:32:00,
2013-06-23 17:37:00,81.0,75.7,30.05,North,5,0.0,0.0,84,0.01,,---,0.01,VWS V14.01,2013-06-23 21:37:00,
2013-06-23 17:42:00,80.6,75.7,30.05,North,5,0.0,0.0,85,0.01,,---,0.01,VWS V14.01,2013-06-23 21:42:00,
2013-06-23 17:47:00,80.3,75.4,30.05,North,5,0.0,0.0,85,0.01,,---,0.01,VWS V14.01,2013-06-23 21:47:00,
2013-06-23 17:52:00,80.1,75.9,30.05,North,5,0.0,0.0,87,0.01,,---,0.01,VWS V14.01,2013-06-23 21:52:00,
2013-06-23 17:57:00,80.0,76.1,30.05,North,5,0.0,0.0,88,0.01,,---,0.01,VWS V14.01,2013-06-23 21:57:00,
2013-06-23 18:00:00,83.0,75.8,30.05,NE,37,0.0,2.0,79,0.00,,---,0.00,VWS V14.01,2013-06-23 22:00:00,
2013-06-23 18:02:00,79.7,75.8,30.05,North,5,0.0,0.0,88,0.01,,---,0.01,VWS V14.01,2013-06-23 22:02:00,
2013-06-23 18:07:00,79.4,75.5,30.05,North,5,0.0,0.0,88,0.01,,---,0.01,VWS V14.01,2013-06-23 22:07:00,
2013-06-23 18:12:00,79.2,75.3,30.05,North,5,0.0,2.0,88,0.01,,---,0.01,VWS V14.01,2013-06-23 22:12:00,
2013-06-23 18:17:00,78.9,75.4,30.05,North,5,0.0,2.0,89,0.02,,---,0.02,VWS V14.01,2013-06-23 22:17:00,
2013-06-23 18:22:00,78.7,75.5,30.06,North,5,0.0,2.0,90,0.02,,---,0.02,VWS V14.01,2013-06-23 22:22:00,
2013-06-23 18:27:00,78.6,75.8,30.05,North,5,0.0,2.0,91,0.02,,---,0.02,VWS V14.01,2013-06-23 22:27:00,
2013-06-23 18:30:00,81.3,75.3,30.05,North,5,0.0,2.0,82,0.00,,---,0.00,VWS V14.01,2013-06-23 22:30:00,
2013-06-23 18:32:00,78.5,75.7,30.06,North,5,0.0,0.0,91,0.02,,---,0.02,VWS V14.01,2013-06-23 22:32:00,
2013-06-23 18:37:00,78.3,75.5,30.06,North,5,1.0,1.0,91,0.02,,---,0.02,VWS V14.01,2013-06-23 22:37:00,
2013-06-23 18:42:00,78.1,75.3,30.06,North,5,0.0,2.0,91,0.02,,---,0.02,VWS V14.01,2013-06-23 22:42:00,
2013-06-23 18:47:00,78.0,75.2,30.05,North,5,0.0,2.0,91,0.02,,---,0.02,VWS V14.01,2013-06-23 22:47:00,
2013-06-23 18:52:00,77.9,75.1,30.05,North,5,0.0,2.0,91,0.02,,---,0.02,VWS V14.01,2013-06-23 22:52:00,
2013-06-23 18:57:00,77.9,75.4,30.05,North,5,0.0,2.0,92,0.02,,---,0.02,VWS V14.01,2013-06-23 22:57:00,
2013-06-23 19:00:00,79.8,76.3,30.06,North,5,0.0,0.0,89,0.01,,---,0.01,VWS V14.01,2013-06-23 23:00:00,
2013-06-23 19:02:00,78.0,75.5,30.05,North,5,0.0,0.0,92,0.01,,---,0.02,VWS V14.01,2013-06-23 23:02:00,
2013-06-23 19:07:00,77.9,75.4,30.05,North,5,0.0,0.0,92,0.01,,---,0.02,VWS V14.01,2013-06-23 23:07:00,
2013-06-23 19:12:00,78.0,75.5,30.04,North,5,0.0,0.0,92,0.01,,---,0.02,VWS V14.01,2013-06-23 23:12:00,
2013-06-23 19:17:00,78.0,75.5,30.05,North,5,0.0,0.0,92,0.01,,---,0.02,VWS V14.01,2013-06-23 23:17:00,
2013-06-23 19:22:00,77.9,75.4,30.05,North,5,0.0,1.0,92,0.01,,---,0.02,VWS V14.01,2013-06-23 23:22:00,
2013-06-23 19:27:00,77.8,75.3,30.05,North,5,0.0,1.0,92,0.01,,---,0.02,VWS V14.01,2013-06-23 23:27:00,
2013-06-23 19:30:00,78.5,75.3,30.05,North,5,0.0,2.0,90,0.02,,---,0.02,VWS V14.01,2013-06-23 23:30:00,
2013-06-23 19:32:00,77.8,75.3,30.06,North,5,0.0,0.0,92,0.00,,---,0.02,VWS V14.01,2013-06-23 23:32:00,
2013-06-23 19:37:00,77.7,75.2,30.06,North,5,0.0,0.0,92,0.00,,---,0.02,VWS V14.01,2013-06-23 23:37:00,
2013-06-23 19:42:00,77.5,75.0,30.07,North,5,0.0,0.0,92,0.00,,---,0.02,VWS V14.01,2013-06-23 23:42:00,
2013-06-23 19:47:00,77.4,74.9,30.07,North,5,0.0,0.0,92,0.00,,---,0.02,VWS V14.01,2013-06-23 23:47:00,
2013-06-23 19:52:00,77.5,75.3,30.07,North,5,0.0,0.0,93,0.00,,---,0.02,VWS V14.01,2013-06-23 23:52:00,
2013-06-23 19:57:00,77.5,75.3,30.07,North,5,0.0,1.0,93,0.00,,---,0.02,VWS V14.01,2013-06-23 23:57:00,
2013-06-23 20:00:00,77.9,75.4,30.05,North,5,0.0,2.0,92,0.02,,---,0.02,VWS V14.01,2013-06-24 00:00:00,
2013-06-23 20:02:00,77.4,75.2,30.08,North,5,0.0,0.0,93,0.00,,---,0.02,VWS V14.01,2013-06-24 00:02:00,
2013-06-23 20:07:00,77.4,75.2,30.07,North,5,0.0,0.0,93,0.00,,---,0.02,VWS V14.01,2013-06-24 00:07:00,
2013-06-23 20:12:00,77.4,75.2,30.07,North,5,0.0,0.0,93,0.00,,---,0.02,VWS V14.01,2013-06-24 00:12:00,
2013-06-23 20:17:00,77.3,75.1,30.07,North,5,0.0,0.0,93,0.00,,---,0.02,VWS V14.01,2013-06-24 00:17:00,
2013-06-23 20:22:00,77.3,74.8,30.07,North,5,0.0,1.0,92,0.00,,---,0.02,VWS V14.01,2013-06-24 00:22:00,
2013-06-23 20:27:00,77.1,74.6,30.06,North,5,0.0,1.0,92,0.00,,---,0.02,VWS V14.01,2013-06-24 00:27:00,
2013-06-23 20:30:00,77.7,75.2,30.05,North,5,0.0,1.0,92,0.01,,---,0.02,VWS V14.01,2013-06-24 00:30:00,
2013-06-23 20:32:00,77.1,74.6,30.06,North,5,0.0,0.0,92,0.00,,---,0.02,VWS V14.01,2013-06-24 00:32:00,
2013-06-23 20:37:00,77.0,74.8,30.06,North,5,0.0,1.0,93,0.00,,---,0.02,VWS V14.01,2013-06-24 00:37:00,
2013-06-23 20:42:00,76.9,74.4,30.07,North,5,0.0,1.0,92,0.00,,---,0.02,VWS V14.01,2013-06-24 00:42:00,
2013-06-23 20:47:00,76.9,74.4,30.07,North,5,0.0,1.0,92,0.00,,---,0.02,VWS V14.01,2013-06-24 00:47:00,
2013-06-23 20:52:00,76.7,74.2,30.07,North,5,0.0,1.0,92,0.00,,---,0.02,VWS V14.01,2013-06-24 00:52:00,
2013-06-23 20:57:00,76.5,74.0,30.07,North,5,0.0,1.0,92,0.00,,---,0.02,VWS V14.01,2013-06-24 00:57:00,
2013-06-23 21:00:00,77.4,75.2,30.07,North,5,0.0,1.0,93,0.00,,---,0.02,VWS V14.01,2013-06-24 01:00:00,
2013-06-23 21:02:00,76.2,74.0,30.07,North,5,0.0,0.0,93,0.00,,---,0.02,VWS V14.01,2013-06-24 01:02:00,
2013-06-23 21:07:00,76.1,73.9,30.08,North,5,0.0,0.0,93,0.00,,---,0.02,VWS V14.01,2013-06-24 01:07:00,
2013-06-23 21:12:00,76.0,73.8,30.08,North,5,0.0,0.0,93,0.00,,---,0.02,VWS V14.01,2013-06-24 01:12:00,
2013-06-23 21:17:00,75.9,73.7,30.07,North,5,0.0,0.0,93,0.00,,---,0.02,VWS V14.01,2013-06-24 01:17:00,
2013-06-23 21:22:00,75.7,73.5,30.07,North,5,0.0,1.0,93,0.00,,---,0.02,VWS V14.01,2013-06-24 01:22:00,
2013-06-23 21:27:00,75.6,73.8,30.07,North,5,0.0,1.0,94,0.00,,---,0.02,VWS V14.01,2013-06-24 01:27:00,
2013-06-23 21:30:00,77.2,74.7,30.06,North,5,0.0,1.0,92,0.00,,---,0.02,VWS V14.01,2013-06-24 01:30:00,
2013-06-23 21:32:00,75.5,73.7,30.07,North,5,0.0,0.0,94,0.00,,---,0.02,VWS V14.01,2013-06-24 01:32:00,
2013-06-23 21:37:00,75.3,73.5,30.07,North,5,0.0,0.0,94,0.00,,---,0.02,VWS V14.01,2013-06-24 01:37:00,
2013-06-23 21:42:00,75.3,73.5,30.07,North,5,0.0,0.0,94,0.00,,---,0.02,VWS V14.01,2013-06-24 01:42:00,
2013-06-23 21:47:00,75.1,73.3,30.07,North,5,0.0,0.0,94,0.00,,---,0.02,VWS V14.01,2013-06-24 01:47:00,
2013-06-23 21:52:00,75.0,73.2,30.07,North,5,0.0,3.0,94,0.00,,---,0.02,VWS V14.01,2013-06-24 01:52:00,
2013-06-23 21:57:00,74.9,73.1,30.07,North,5,0.0,3.0,94,0.00,,---,0.02,VWS V14.01,2013-06-24 01:57:00,
2013-06-23 22:00:00,76.3,74.1,30.07,North,5,0.0,1.0,93,0.00,,---,0.02,VWS V14.01,2013-06-24 02:00:00,
2013-06-23 22:02:00,74.8,73.0,30.07,North,5,0.0,0.0,94,0.00,,---,0.02,VWS V14.01,2013-06-24 02:02:00,
2013-06-23 22:07:00,74.6,72.8,30.08,North,5,0.0,3.0,94,0.00,,---,0.02,VWS V14.01,2013-06-24 02:07:00,
2013-06-23 22:12:00,74.5,72.7,30.08,North,5,0.0,3.0,94,0.00,,---,0.02,VWS V14.01,2013-06-24 02:12:00,
2013-06-23 22:17:00,74.3,72.5,30.08,North,5,0.0,3.0,94,0.00,,---,0.02,VWS V14.01,2013-06-24 02:17:00,
2013-06-23 22:22:00,74.2,72.4,30.09,North,5,0.0,3.0,94,0.00,,---,0.02,VWS V14.01,2013-06-24 02:22:00,
2013-06-23 22:27:00,74.1,72.3,30.09,North,5,0.0,3.0,94,0.00,,---,0.02,VWS V14.01,2013-06-24 02:27:00,
2013-06-23 22:30:00,75.5,73.7,30.07,North,5,0.0,1.0,94,0.00,,---,0.02,VWS V14.01,2013-06-24 02:30:00,
2013-06-23 22:32:00,73.9,72.1,30.09,North,5,1.0,2.0,94,0.00,,---,0.02,VWS V14.01,2013-06-24 02:32:00,
2013-06-23 22:37:00,73.8,72.0,30.09,North,5,0.0,2.0,94,0.00,,---,0.02,VWS V14.01,2013-06-24 02:37:00,
2013-06-23 22:42:00,73.7,72.2,30.08,North,5,0.0,2.0,95,0.00,,---,0.02,VWS V14.01,2013-06-24 02:42:00,
2013-06-23 22:47:00,73.5,72.0,30.08,North,5,0.0,2.0,95,0.00,,---,0.02,VWS V14.01,2013-06-24 02:47:00,
2013-06-23 22:52:00,73.4,71.6,30.08,North,5,0.0,2.0,94,0.00,,---,0.02,VWS V14.01,2013-06-24 02:52:00,
2013-06-23 22:57:00,73.3,71.5,30.08,North,5,0.0,2.0,94,0.00,,---,0.02,VWS V14.01,2013-06-24 02:57:00,
2013-06-23 23:00:00,74.8,73.0,30.07,North,5,0.0,3.0,94,0.00,,---,0.02,VWS V14.01,2013-06-24 03:00:00,
2013-06-23 23:02:00,73.2,71.4,30.08,North,5,0.0,0.0,94,0.00,,---,0.02,VWS V14.01,2013-06-24 03:02:00,
2013-06-23 23:07:00,73.1,71.3,30.08,North,5,0.0,0.0,94,0.00,,---,0.02,VWS V14.01,2013-06-24 03:07:00,
2013-06-23 23:12:00,73.0,71.2,30.08,North,5,0.0,0.0,94,0.00,,---,0.02,VWS V14.01,2013-06-24 03:12:00,
2013-06-23 23:17:00,72.9,71.1,30.08,North,5,0.0,0.0,94,0.00,,---,0.02,VWS V14.01,2013-06-24 03:17:00,
2013-06-23 23:22:00,72.8,71.0,30.08,North,5,0.0,0.0,94,0.00,,---,0.02,VWS V14.01,2013-06-24 03:22:00,
2013-06-23 23:27:00,72.6,70.5,30.08,North,5,0.0,0.0,93,0.00,,---,0.02,VWS V14.01,2013-06-24 03:27:00,
2013-06-23 23:30:00,74.0,72.2,30.09,North,5,0.0,3.0,94,0.00,,---,0.02,VWS V14.01,2013-06-24 03:30:00,
2013-06-23 23:32:00,72.4,70.3,30.09,North,5,0.0,0.0,93,0.00,,---,0.02,VWS V14.01,2013-06-24 03:32:00,
2013-06-23 23:37:00,72.2,70.1,30.09,North,5,0.0,0.0,93,0.00,,---,0.02,VWS V14.01,2013-06-24 03:37:00,
2013-06-23 23:42:00,72.2,70.1,30.09,North,5,0.0,0.0,93,0.00,,---,0.02,VWS V14.01,2013-06-24 03:42:00,
2013-06-23 23:47:00,72.1,70.0,30.09,North,5,0.0,0.0,93,0.00,,---,0.02,VWS V14.01,2013-06-24 03:47:00,
2013-06-23 23:52:00,71.9,70.1,30.09,North,5,0.0,0.0,94,0.00,,---,0.02,VWS V14.01,2013-06-24 03:52:00,
2013-06-23 23:57:00,71.8,70.0,30.09,North,5,0.0,0.0,94,0.00,,---,0.02,VWS V14.01,2013-06-24 03:57:00,